KBPG/BPG METAR and TAF weather

Enter ICAO airport designator
Station Type Date Time Source
KBPG METAR 2021/01/22 07:15 UTC NOAA

KBPG 220715Z AUTO 23006KT 10SM CLR 12/11 A2994 RMK AO2 T01200112


Station Type Date Time Source
KBPG Decoded METAR 2021/01/22 07:15 UTC NOAA

Big Spring, Big Spring McMahon-Wrinkle Airport, TX, United States (KBPG) 32-12N 101-31W
Jan 22, 2021 - 02:15 AM EST / 2021.01.22 0715 UTC
Wind: from the SW (230 degrees) at 7 MPH (6 KT):0
Visibility: 10 mile(s):0
Sky conditions: clear
Temperature: 53.6 F (12.0 C)
Dew Point: 52.2 F (11.2 C)
Relative Humidity: 94%
Pressure (altimeter): 29.94 in. Hg (1013 hPa)
ob: KBPG 220715Z AUTO 23006KT 10SM CLR 12/11 A2994 RMK AO2 T01200112
cycle: 7

Station Type Date Time Source
KBPG TAF UTC NOAA

Error!

Example: see airport list